sensor_id;sensor_type;location;lat;lon;timestamp;temperature;humidity
17948;DHT22;9099;47.958;11.366;2022-07-03T00:00:29;16.90;99.90
17948;DHT22;9099;47.958;11.366;2022-07-03T00:02:56;16.90;99.90
17948;DHT22;9099;47.958;11.366;2022-07-03T00:05:23;16.90;99.90
17948;DHT22;9099;47.958;11.366;2022-07-03T00:07:51;16.90;99.90
17948;DHT22;9099;47.958;11.366;2022-07-03T00:10:18;16.90;99.90
17948;DHT22;9099;47.958;11.366;2022-07-03T00:12:45;16.80;99.90
17948;DHT22;9099;47.958;11.366;2022-07-03T00:15:12;16.80;99.90
17948;DHT22;9099;47.958;11.366;2022-07-03T00:17:39;16.70;99.90
17948;DHT22;9099;47.958;11.366;2022-07-03T00:20:08;16.70;99.90
17948;DHT22;9099;47.958;11.366;2022-07-03T00:22:37;16.70;99.90
17948;DHT22;9099;47.958;11.366;2022-07-03T00:25:11;16.70;99.90
17948;DHT22;9099;47.958;11.366;2022-07-03T00:27:39;16.80;99.90
17948;DHT22;9099;47.958;11.366;2022-07-03T00:30:07;16.80;99.90
17948;DHT22;9099;47.958;11.366;2022-07-03T00:32:38;16.80;99.90
17948;DHT22;9099;47.958;11.366;2022-07-03T00:35:06;16.90;99.90
17948;DHT22;9099;47.958;11.366;2022-07-03T00:37:33;16.80;99.90
17948;DHT22;9099;47.958;11.366;2022-07-03T00:40:00;16.80;99.90
17948;DHT22;9099;47.958;11.366;2022-07-03T00:42:30;16.80;99.90
17948;DHT22;9099;47.958;11.366;2022-07-03T00:44:57;16.90;99.90
17948;DHT22;9099;47.958;11.366;2022-07-03T00:47:26;16.90;99.90
17948;DHT22;9099;47.958;11.366;2022-07-03T00:49:54;16.90;99.90
17948;DHT22;9099;47.958;11.366;2022-07-03T00:52:23;17.00;99.90
17948;DHT22;9099;47.958;11.366;2022-07-03T00:54:52;17.00;99.90
17948;DHT22;9099;47.958;11.366;2022-07-03T00:57:20;17.00;99.90
17948;DHT22;9099;47.958;11.366;2022-07-03T00:59:49;17.10;99.90
17948;DHT22;9099;47.958;11.366;2022-07-03T01:02:27;17.10;99.90
17948;DHT22;9099;47.958;11.366;2022-07-03T01:04:59;17.20;99.90
17948;DHT22;9099;47.958;11.366;2022-07-03T01:07:36;17.20;99.90
17948;DHT22;9099;47.958;11.366;2022-07-03T01:10:09;17.20;99.90
17948;DHT22;9099;47.958;11.366;2022-07-03T01:12:51;17.20;99.90
17948;DHT22;9099;47.958;11.366;2022-07-03T01:15:29;17.20;99.90
17948;DHT22;9099;47.958;11.366;2022-07-03T01:18:13;17.20;99.90
17948;DHT22;9099;47.958;11.366;2022-07-03T01:20:50;17.10;99.90
17948;DHT22;9099;47.958;11.366;2022-07-03T01:23:24;17.00;99.90
17948;DHT22;9099;47.958;11.366;2022-07-03T01:25:54;16.90;99.90
17948;DHT22;9099;47.958;11.366;2022-07-03T01:28:22;16.90;99.90
17948;DHT22;9099;47.958;11.366;2022-07-03T01:30:51;16.90;99.90
17948;DHT22;9099;47.958;11.366;2022-07-03T01:33:21;16.90;99.90
17948;DHT22;9099;47.958;11.366;2022-07-03T01:35:57;16.90;99.90
17948;DHT22;9099;47.958;11.366;2022-07-03T01:38:27;16.90;99.90
17948;DHT22;9099;47.958;11.366;2022-07-03T01:40:57;16.90;99.90
17948;DHT22;9099;47.958;11.366;2022-07-03T01:43:28;16.80;99.90
17948;DHT22;9099;47.958;11.366;2022-07-03T01:45:57;16.80;99.90
17948;DHT22;9099;47.958;11.366;2022-07-03T01:48:25;16.70;99.90
17948;DHT22;9099;47.958;11.366;2022-07-03T01:50:53;16.70;99.90
17948;DHT22;9099;47.958;11.366;2022-07-03T01:53:23;16.70;99.90
17948;DHT22;9099;47.958;11.366;2022-07-03T01:55:51;16.80;99.90
17948;DHT22;9099;47.958;11.366;2022-07-03T01:58:21;16.80;99.90
17948;DHT22;9099;47.958;11.366;2022-07-03T02:00:53;16.80;99.90
17948;DHT22;9099;47.958;11.366;2022-07-03T02:03:26;16.90;99.90
17948;DHT22;9099;47.958;11.366;2022-07-03T02:06:02;16.80;99.90
17948;DHT22;9099;47.958;11.366;2022-07-03T02:08:36;16.90;99.90
17948;DHT22;9099;47.958;11.366;2022-07-03T02:11:15;16.90;99.90
17948;DHT22;9099;47.958;11.366;2022-07-03T02:13:51;16.90;99.90
17948;DHT22;9099;47.958;11.366;2022-07-03T02:16:24;16.80;99.90
17948;DHT22;9099;47.958;11.366;2022-07-03T02:18:58;16.80;99.90
17948;DHT22;9099;47.958;11.366;2022-07-03T02:21:29;16.90;99.90
17948;DHT22;9099;47.958;11.366;2022-07-03T02:24:06;16.80;99.90
17948;DHT22;9099;47.958;11.366;2022-07-03T02:26:39;16.80;99.90
17948;DHT22;9099;47.958;11.366;2022-07-03T02:29:12;16.90;99.90
17948;DHT22;9099;47.958;11.366;2022-07-03T02:31:43;17.00;99.90
17948;DHT22;9099;47.958;11.366;2022-07-03T02:34:15;17.00;99.90
17948;DHT22;9099;47.958;11.366;2022-07-03T02:36:45;17.10;99.90
17948;DHT22;9099;47.958;11.366;2022-07-03T02:39:18;17.10;99.90
17948;DHT22;9099;47.958;11.366;2022-07-03T02:41:52;17.10;99.90
17948;DHT22;9099;47.958;11.366;2022-07-03T02:44:25;17.10;99.90
17948;DHT22;9099;47.958;11.366;2022-07-03T02:47:00;17.00;99.90
17948;DHT22;9099;47.958;11.366;2022-07-03T02:49:42;17.00;99.90
17948;DHT22;9099;47.958;11.366;2022-07-03T02:52:32;17.00;99.90
17948;DHT22;9099;47.958;11.366;2022-07-03T02:55:03;17.00;99.90
17948;DHT22;9099;47.958;11.366;2022-07-03T02:57:37;16.80;99.90
17948;DHT22;9099;47.958;11.366;2022-07-03T03:00:07;16.80;99.90
17948;DHT22;9099;47.958;11.366;2022-07-03T03:02:53;16.60;99.90
17948;DHT22;9099;47.958;11.366;2022-07-03T03:05:30;16.50;99.90
17948;DHT22;9099;47.958;11.366;2022-07-03T03:08:11;16.50;99.90
17948;DHT22;9099;47.958;11.366;2022-07-03T03:10:39;16.50;99.90
17948;DHT22;9099;47.958;11.366;2022-07-03T03:13:08;16.50;99.90
17948;DHT22;9099;47.958;11.366;2022-07-03T03:15:38;16.60;99.90
17948;DHT22;9099;47.958;11.366;2022-07-03T03:18:07;16.60;99.90
17948;DHT22;9099;47.958;11.366;2022-07-03T03:20:36;16.60;99.90
17948;DHT22;9099;47.958;11.366;2022-07-03T03:23:16;16.60;99.90
17948;DHT22;9099;47.958;11.366;2022-07-03T03:25:44;16.70;99.90
17948;DHT22;9099;47.958;11.366;2022-07-03T03:28:12;16.60;99.90
17948;DHT22;9099;47.958;11.366;2022-07-03T03:30:40;16.60;99.90
17948;DHT22;9099;47.958;11.366;2022-07-03T03:33:08;16.50;99.90
17948;DHT22;9099;47.958;11.366;2022-07-03T03:35:36;16.50;99.90
17948;DHT22;9099;47.958;11.366;2022-07-03T03:38:03;16.50;99.90
17948;DHT22;9099;47.958;11.366;2022-07-03T03:40:32;16.40;99.90
17948;DHT22;9099;47.958;11.366;2022-07-03T03:42:59;16.40;99.90
17948;DHT22;9099;47.958;11.366;2022-07-03T03:45:26;16.40;99.90
17948;DHT22;9099;47.958;11.366;2022-07-03T03:47:54;16.40;99.90
17948;DHT22;9099;47.958;11.366;2022-07-03T03:50:21;16.40;99.90
17948;DHT22;9099;47.958;11.366;2022-07-03T03:52:49;16.40;99.90
17948;DHT22;9099;47.958;11.366;2022-07-03T03:55:16;16.40;99.90
17948;DHT22;9099;47.958;11.366;2022-07-03T03:57:42;16.40;99.90
17948;DHT22;9099;47.958;11.366;2022-07-03T04:00:10;16.40;99.90
17948;DHT22;9099;47.958;11.366;2022-07-03T04:02:37;16.40;99.90
17948;DHT22;9099;47.958;11.366;2022-07-03T04:05:06;16.40;99.90
17948;DHT22;9099;47.958;11.366;2022-07-03T04:07:33;16.40;99.90
17948;DHT22;9099;47.958;11.366;2022-07-03T04:10:00;16.40;99.90
17948;DHT22;9099;47.958;11.366;2022-07-03T04:12:27;16.40;99.90
17948;DHT22;9099;47.958;11.366;2022-07-03T04:14:54;16.40;99.90
17948;DHT22;9099;47.958;11.366;2022-07-03T04:17:23;16.50;99.90
17948;DHT22;9099;47.958;11.366;2022-07-03T04:19:50;16.50;99.90
17948;DHT22;9099;47.958;11.366;2022-07-03T04:22:18;16.50;99.90
17948;DHT22;9099;47.958;11.366;2022-07-03T04:24:45;16.50;99.90
17948;DHT22;9099;47.958;11.366;2022-07-03T04:27:12;16.60;99.90
17948;DHT22;9099;47.958;11.366;2022-07-03T04:29:39;16.60;99.90
17948;DHT22;9099;47.958;11.366;2022-07-03T04:32:06;16.60;99.90
17948;DHT22;9099;47.958;11.366;2022-07-03T04:34:33;16.70;99.90
17948;DHT22;9099;47.958;11.366;2022-07-03T04:37:00;16.70;99.90
17948;DHT22;9099;47.958;11.366;2022-07-03T04:39:28;16.70;99.90
17948;DHT22;9099;47.958;11.366;2022-07-03T04:41:55;16.80;99.90
17948;DHT22;9099;47.958;11.366;2022-07-03T04:44:22;16.80;99.90
17948;DHT22;9099;47.958;11.366;2022-07-03T04:46:49;16.90;99.90
17948;DHT22;9099;47.958;11.366;2022-07-03T04:49:16;16.90;99.90
17948;DHT22;9099;47.958;11.366;2022-07-03T04:51:43;17.10;99.90
17948;DHT22;9099;47.958;11.366;2022-07-03T04:54:09;17.20;99.90
17948;DHT22;9099;47.958;11.366;2022-07-03T04:56:38;17.30;99.90
17948;DHT22;9099;47.958;11.366;2022-07-03T04:59:04;17.40;99.90
17948;DHT22;9099;47.958;11.366;2022-07-03T05:01:31;17.40;99.90
17948;DHT22;9099;47.958;11.366;2022-07-03T05:03:58;17.50;99.90
17948;DHT22;9099;47.958;11.366;2022-07-03T05:06:25;17.60;99.90
17948;DHT22;9099;47.958;11.366;2022-07-03T05:08:52;17.70;99.90
17948;DHT22;9099;47.958;11.366;2022-07-03T05:11:19;17.80;99.90
17948;DHT22;9099;47.958;11.366;2022-07-03T05:13:47;17.90;99.90
17948;DHT22;9099;47.958;11.366;2022-07-03T05:16:14;18.00;99.90
17948;DHT22;9099;47.958;11.366;2022-07-03T05:18:41;18.10;99.90
17948;DHT22;9099;47.958;11.366;2022-07-03T05:21:07;18.20;99.90
17948;DHT22;9099;47.958;11.366;2022-07-03T05:23:34;18.40;99.90
17948;DHT22;9099;47.958;11.366;2022-07-03T05:26:01;18.60;99.90
17948;DHT22;9099;47.958;11.366;2022-07-03T05:28:28;18.80;99.90
17948;DHT22;9099;47.958;11.366;2022-07-03T05:30:56;19.10;99.90
17948;DHT22;9099;47.958;11.366;2022-07-03T05:33:23;19.30;99.90
17948;DHT22;9099;47.958;11.366;2022-07-03T05:35:50;19.40;99.90
17948;DHT22;9099;47.958;11.366;2022-07-03T05:38:17;19.70;99.90
17948;DHT22;9099;47.958;11.366;2022-07-03T05:41:04;19.80;99.90
17948;DHT22;9099;47.958;11.366;2022-07-03T05:43:31;20.10;99.90
17948;DHT22;9099;47.958;11.366;2022-07-03T05:45:59;20.30;99.90
17948;DHT22;9099;47.958;11.366;2022-07-03T05:48:26;20.40;99.90
17948;DHT22;9099;47.958;11.366;2022-07-03T05:50:53;20.60;99.90
17948;DHT22;9099;47.958;11.366;2022-07-03T05:53:20;20.80;99.90
17948;DHT22;9099;47.958;11.366;2022-07-03T05:55:47;21.00;99.90
17948;DHT22;9099;47.958;11.366;2022-07-03T05:58:14;21.30;99.90
17948;DHT22;9099;47.958;11.366;2022-07-03T06:00:41;21.50;99.90
17948;DHT22;9099;47.958;11.366;2022-07-03T06:03:10;21.60;99.90
17948;DHT22;9099;47.958;11.366;2022-07-03T06:05:37;21.80;99.90
17948;DHT22;9099;47.958;11.366;2022-07-03T06:08:04;21.90;99.90
17948;DHT22;9099;47.958;11.366;2022-07-03T06:10:31;21.80;99.90
17948;DHT22;9099;47.958;11.366;2022-07-03T06:12:58;21.80;99.90
17948;DHT22;9099;47.958;11.366;2022-07-03T06:15:26;21.80;99.90
17948;DHT22;9099;47.958;11.366;2022-07-03T06:17:53;21.90;99.90
17948;DHT22;9099;47.958;11.366;2022-07-03T06:20:21;22.00;99.90
17948;DHT22;9099;47.958;11.366;2022-07-03T06:22:48;22.10;99.90
17948;DHT22;9099;47.958;11.366;2022-07-03T06:25:15;22.30;99.90
17948;DHT22;9099;47.958;11.366;2022-07-03T06:27:41;22.40;99.90
17948;DHT22;9099;47.958;11.366;2022-07-03T06:30:09;22.50;99.90
17948;DHT22;9099;47.958;11.366;2022-07-03T06:32:36;22.60;99.90
17948;DHT22;9099;47.958;11.366;2022-07-03T06:35:04;22.50;99.90
17948;DHT22;9099;47.958;11.366;2022-07-03T06:37:33;22.60;99.90
17948;DHT22;9099;47.958;11.366;2022-07-03T06:40:00;22.70;99.90
17948;DHT22;9099;47.958;11.366;2022-07-03T06:42:27;22.90;99.90
17948;DHT22;9099;47.958;11.366;2022-07-03T06:44:54;23.10;99.90
17948;DHT22;9099;47.958;11.366;2022-07-03T06:47:21;23.20;99.90
17948;DHT22;9099;47.958;11.366;2022-07-03T06:49:47;23.30;99.90
17948;DHT22;9099;47.958;11.366;2022-07-03T06:52:14;23.40;99.90
17948;DHT22;9099;47.958;11.366;2022-07-03T06:54:43;23.50;99.90
17948;DHT22;9099;47.958;11.366;2022-07-03T06:57:10;23.70;99.90
17948;DHT22;9099;47.958;11.366;2022-07-03T06:59:37;23.80;99.90
17948;DHT22;9099;47.958;11.366;2022-07-03T07:02:04;23.80;99.90
17948;DHT22;9099;47.958;11.366;2022-07-03T07:04:31;24.00;99.90
17948;DHT22;9099;47.958;11.366;2022-07-03T07:06:57;24.10;99.90
17948;DHT22;9099;47.958;11.366;2022-07-03T07:09:24;24.30;99.90
17948;DHT22;9099;47.958;11.366;2022-07-03T07:11:53;24.30;99.90
17948;DHT22;9099;47.958;11.366;2022-07-03T07:14:19;24.50;99.90
17948;DHT22;9099;47.958;11.366;2022-07-03T07:16:46;24.60;99.90
17948;DHT22;9099;47.958;11.366;2022-07-03T07:19:13;24.70;99.90
17948;DHT22;9099;47.958;11.366;2022-07-03T07:21:40;24.70;99.90
17948;DHT22;9099;47.958;11.366;2022-07-03T07:24:07;24.90;99.90
17948;DHT22;9099;47.958;11.366;2022-07-03T07:26:34;25.10;99.90
17948;DHT22;9099;47.958;11.366;2022-07-03T07:29:02;25.20;99.90
17948;DHT22;9099;47.958;11.366;2022-07-03T07:31:29;25.40;99.90
17948;DHT22;9099;47.958;11.366;2022-07-03T07:33:56;25.50;99.90
17948;DHT22;9099;47.958;11.366;2022-07-03T07:36:23;25.50;99.90
17948;DHT22;9099;47.958;11.366;2022-07-03T07:38:49;25.60;99.90
17948;DHT22;9099;47.958;11.366;2022-07-03T07:41:16;25.70;99.90
17948;DHT22;9099;47.958;11.366;2022-07-03T07:43:43;25.90;99.90
17948;DHT22;9099;47.958;11.366;2022-07-03T07:46:11;25.90;99.90
17948;DHT22;9099;47.958;11.366;2022-07-03T07:48:38;26.00;99.90
17948;DHT22;9099;47.958;11.366;2022-07-03T07:51:05;26.10;99.90
17948;DHT22;9099;47.958;11.366;2022-07-03T07:53:32;26.20;99.90
17948;DHT22;9099;47.958;11.366;2022-07-03T07:55:59;26.30;99.90
17948;DHT22;9099;47.958;11.366;2022-07-03T07:58:26;26.30;99.90
17948;DHT22;9099;47.958;11.366;2022-07-03T08:00:53;26.40;99.90
17948;DHT22;9099;47.958;11.366;2022-07-03T08:03:38;26.50;99.90
17948;DHT22;9099;47.958;11.366;2022-07-03T08:06:22;26.50;99.90
17948;DHT22;9099;47.958;11.366;2022-07-03T08:08:49;26.60;99.90
17948;DHT22;9099;47.958;11.366;2022-07-03T08:11:16;26.60;99.90
17948;DHT22;9099;47.958;11.366;2022-07-03T08:13:43;26.80;99.90
17948;DHT22;9099;47.958;11.366;2022-07-03T08:16:11;27.00;99.90
17948;DHT22;9099;47.958;11.366;2022-07-03T08:18:40;27.20;99.90
17948;DHT22;9099;47.958;11.366;2022-07-03T08:21:06;27.40;99.90
17948;DHT22;9099;47.958;11.366;2022-07-03T08:23:33;27.40;99.90
17948;DHT22;9099;47.958;11.366;2022-07-03T08:26:00;27.40;99.90
17948;DHT22;9099;47.958;11.366;2022-07-03T08:28:27;27.50;99.90
17948;DHT22;9099;47.958;11.366;2022-07-03T08:30:54;27.50;99.90
17948;DHT22;9099;47.958;11.366;2022-07-03T08:33:21;27.50;99.90
17948;DHT22;9099;47.958;11.366;2022-07-03T08:35:49;27.60;99.90
17948;DHT22;9099;47.958;11.366;2022-07-03T08:38:16;27.70;99.90
17948;DHT22;9099;47.958;11.366;2022-07-03T08:40:44;27.90;99.90
17948;DHT22;9099;47.958;11.366;2022-07-03T08:43:11;28.10;99.90
17948;DHT22;9099;47.958;11.366;2022-07-03T08:45:39;28.30;99.90
17948;DHT22;9099;47.958;11.366;2022-07-03T08:48:07;28.40;99.90
17948;DHT22;9099;47.958;11.366;2022-07-03T08:50:36;28.60;99.90
17948;DHT22;9099;47.958;11.366;2022-07-03T08:53:06;28.70;99.90
17948;DHT22;9099;47.958;11.366;2022-07-03T08:55:33;29.00;99.90
17948;DHT22;9099;47.958;11.366;2022-07-03T08:58:02;29.20;99.90
17948;DHT22;9099;47.958;11.366;2022-07-03T09:00:29;29.20;99.90
17948;DHT22;9099;47.958;11.366;2022-07-03T09:02:57;29.30;99.90
17948;DHT22;9099;47.958;11.366;2022-07-03T09:05:25;29.50;99.90
17948;DHT22;9099;47.958;11.366;2022-07-03T09:07:52;29.80;99.90
17948;DHT22;9099;47.958;11.366;2022-07-03T09:10:21;29.80;99.90
17948;DHT22;9099;47.958;11.366;2022-07-03T09:12:48;30.00;99.90
17948;DHT22;9099;47.958;11.366;2022-07-03T09:15:15;29.90;99.90
17948;DHT22;9099;47.958;11.366;2022-07-03T09:17:56;29.80;99.90
17948;DHT22;9099;47.958;11.366;2022-07-03T09:20:28;30.00;99.90
17948;DHT22;9099;47.958;11.366;2022-07-03T09:23:11;30.00;99.90
17948;DHT22;9099;47.958;11.366;2022-07-03T09:25:56;30.10;99.90
17948;DHT22;9099;47.958;11.366;2022-07-03T09:28:24;30.00;99.90
17948;DHT22;9099;47.958;11.366;2022-07-03T09:31:06;30.20;99.90
17948;DHT22;9099;47.958;11.366;2022-07-03T09:33:33;30.40;99.90
17948;DHT22;9099;47.958;11.366;2022-07-03T09:36:00;30.60;99.90
17948;DHT22;9099;47.958;11.366;2022-07-03T09:38:27;30.90;99.90
17948;DHT22;9099;47.958;11.366;2022-07-03T09:40:55;30.80;99.90
17948;DHT22;9099;47.958;11.366;2022-07-03T09:43:24;31.10;99.90
17948;DHT22;9099;47.958;11.366;2022-07-03T09:45:56;31.40;99.90
17948;DHT22;9099;47.958;11.366;2022-07-03T09:48:28;31.50;99.90
17948;DHT22;9099;47.958;11.366;2022-07-03T09:51:11;31.40;99.90
17948;DHT22;9099;47.958;11.366;2022-07-03T09:53:51;31.60;99.90
17948;DHT22;9099;47.958;11.366;2022-07-03T09:56:20;31.70;99.90
17948;DHT22;9099;47.958;11.366;2022-07-03T09:59:05;31.80;99.90
17948;DHT22;9099;47.958;11.366;2022-07-03T10:01:33;32.00;99.90
17948;DHT22;9099;47.958;11.366;2022-07-03T10:04:13;32.10;99.90
17948;DHT22;9099;47.958;11.366;2022-07-03T10:06:51;32.20;99.90
17948;DHT22;9099;47.958;11.366;2022-07-03T10:09:20;32.40;99.90
17948;DHT22;9099;47.958;11.366;2022-07-03T10:11:48;32.30;98.70
17948;DHT22;9099;47.958;11.366;2022-07-03T10:14:16;32.30;98.10
17948;DHT22;9099;47.958;11.366;2022-07-03T10:16:44;32.40;98.00
17948;DHT22;9099;47.958;11.366;2022-07-03T10:19:13;32.30;96.50
17948;DHT22;9099;47.958;11.366;2022-07-03T10:21:43;32.30;99.90
17948;DHT22;9099;47.958;11.366;2022-07-03T10:24:11;32.90;99.80
17948;DHT22;9099;47.958;11.366;2022-07-03T10:26:39;33.20;96.80
17948;DHT22;9099;47.958;11.366;2022-07-03T10:29:10;33.30;95.60
17948;DHT22;9099;47.958;11.366;2022-07-03T10:31:43;33.10;94.70
17948;DHT22;9099;47.958;11.366;2022-07-03T10:34:11;33.10;95.40
17948;DHT22;9099;47.958;11.366;2022-07-03T10:36:39;33.30;95.00
17948;DHT22;9099;47.958;11.366;2022-07-03T10:39:07;33.60;94.90
17948;DHT22;9099;47.958;11.366;2022-07-03T10:41:41;33.80;93.80
17948;DHT22;9099;47.958;11.366;2022-07-03T10:44:28;34.00;94.90
17948;DHT22;9099;47.958;11.366;2022-07-03T10:47:44;34.00;94.80
17948;DHT22;9099;47.958;11.366;2022-07-03T10:50:13;34.10;96.00
17948;DHT22;9099;47.958;11.366;2022-07-03T10:52:40;34.30;96.60
17948;DHT22;9099;47.958;11.366;2022-07-03T10:55:08;34.50;92.90
17948;DHT22;9099;47.958;11.366;2022-07-03T10:57:36;34.70;95.90
17948;DHT22;9099;47.958;11.366;2022-07-03T11:00:19;35.00;91.30
17948;DHT22;9099;47.958;11.366;2022-07-03T11:02:48;35.20;92.70
17948;DHT22;9099;47.958;11.366;2022-07-03T11:05:23;35.00;93.30
17948;DHT22;9099;47.958;11.366;2022-07-03T11:10:41;34.90;91.10
17948;DHT22;9099;47.958;11.366;2022-07-03T11:13:13;34.80;93.80
17948;DHT22;9099;47.958;11.366;2022-07-03T11:15:44;34.80;93.00
17948;DHT22;9099;47.958;11.366;2022-07-03T11:18:26;35.00;93.50
17948;DHT22;9099;47.958;11.366;2022-07-03T11:21:20;35.10;92.10
17948;DHT22;9099;47.958;11.366;2022-07-03T11:24:02;35.20;92.10
17948;DHT22;9099;47.958;11.366;2022-07-03T11:26:32;35.50;93.10
17948;DHT22;9099;47.958;11.366;2022-07-03T11:28:59;35.60;91.60
17948;DHT22;9099;47.958;11.366;2022-07-03T11:31:27;35.50;92.00
17948;DHT22;9099;47.958;11.366;2022-07-03T11:33:58;35.50;93.10
17948;DHT22;9099;47.958;11.366;2022-07-03T11:36:26;35.60;94.40
17948;DHT22;9099;47.958;11.366;2022-07-03T11:39:04;35.60;93.40
17948;DHT22;9099;47.958;11.366;2022-07-03T11:41:42;35.30;90.80
17948;DHT22;9099;47.958;11.366;2022-07-03T11:44:13;35.50;91.50
17948;DHT22;9099;47.958;11.366;2022-07-03T11:46:47;35.70;92.00
17948;DHT22;9099;47.958;11.366;2022-07-03T11:49:15;35.70;90.80
17948;DHT22;9099;47.958;11.366;2022-07-03T11:51:53;35.70;88.30
17948;DHT22;9099;47.958;11.366;2022-07-03T11:54:20;35.60;88.70
17948;DHT22;9099;47.958;11.366;2022-07-03T11:56:46;35.60;90.50
17948;DHT22;9099;47.958;11.366;2022-07-03T11:59:13;35.30;88.10
17948;DHT22;9099;47.958;11.366;2022-07-03T12:01:42;35.30;91.90
17948;DHT22;9099;47.958;11.366;2022-07-03T12:04:09;35.30;90.70
17948;DHT22;9099;47.958;11.366;2022-07-03T12:06:39;35.30;90.60
17948;DHT22;9099;47.958;11.366;2022-07-03T12:09:15;35.10;90.80
17948;DHT22;9099;47.958;11.366;2022-07-03T12:11:51;35.30;94.10
17948;DHT22;9099;47.958;11.366;2022-07-03T12:14:17;35.70;92.90
17948;DHT22;9099;47.958;11.366;2022-07-03T12:17:00;35.60;90.00
17948;DHT22;9099;47.958;11.366;2022-07-03T12:19:27;35.30;89.20
17948;DHT22;9099;47.958;11.366;2022-07-03T12:21:54;35.10;87.20
17948;DHT22;9099;47.958;11.366;2022-07-03T12:24:21;35.20;92.70
17948;DHT22;9099;47.958;11.366;2022-07-03T12:26:48;35.20;89.70
17948;DHT22;9099;47.958;11.366;2022-07-03T12:29:16;35.20;87.90
17948;DHT22;9099;47.958;11.366;2022-07-03T12:31:45;34.90;89.10
17948;DHT22;9099;47.958;11.366;2022-07-03T12:34:15;34.80;91.60
17948;DHT22;9099;47.958;11.366;2022-07-03T12:36:54;34.60;90.40
17948;DHT22;9099;47.958;11.366;2022-07-03T12:39:21;34.90;91.70
17948;DHT22;9099;47.958;11.366;2022-07-03T12:41:48;35.10;90.00
17948;DHT22;9099;47.958;11.366;2022-07-03T12:44:15;35.00;84.50
17948;DHT22;9099;47.958;11.366;2022-07-03T12:46:46;34.90;88.60
17948;DHT22;9099;47.958;11.366;2022-07-03T12:49:15;34.90;86.70
17948;DHT22;9099;47.958;11.366;2022-07-03T12:51:43;34.90;92.00
17948;DHT22;9099;47.958;11.366;2022-07-03T12:54:12;34.70;90.60
17948;DHT22;9099;47.958;11.366;2022-07-03T12:56:40;34.80;89.40
17948;DHT22;9099;47.958;11.366;2022-07-03T13:02:00;34.90;91.60
17948;DHT22;9099;47.958;11.366;2022-07-03T13:04:33;34.80;90.30
17948;DHT22;9099;47.958;11.366;2022-07-03T13:07:01;34.60;88.60
17948;DHT22;9099;47.958;11.366;2022-07-03T13:09:28;34.40;86.30
17948;DHT22;9099;47.958;11.366;2022-07-03T13:11:55;34.20;89.60
17948;DHT22;9099;47.958;11.366;2022-07-03T13:14:22;34.40;89.80
17948;DHT22;9099;47.958;11.366;2022-07-03T13:16:51;34.50;91.00
17948;DHT22;9099;47.958;11.366;2022-07-03T13:19:20;34.40;88.50
17948;DHT22;9099;47.958;11.366;2022-07-03T13:21:49;34.40;88.20
17948;DHT22;9099;47.958;11.366;2022-07-03T13:24:17;34.40;90.10
17948;DHT22;9099;47.958;11.366;2022-07-03T13:26:45;34.60;90.40
17948;DHT22;9099;47.958;11.366;2022-07-03T13:29:12;34.80;91.80
17948;DHT22;9099;47.958;11.366;2022-07-03T13:31:39;34.80;87.40
17948;DHT22;9099;47.958;11.366;2022-07-03T13:34:06;34.90;90.90
17948;DHT22;9099;47.958;11.366;2022-07-03T13:36:33;35.00;88.30
17948;DHT22;9099;47.958;11.366;2022-07-03T13:39:02;35.00;90.60
17948;DHT22;9099;47.958;11.366;2022-07-03T13:41:29;35.20;90.00
17948;DHT22;9099;47.958;11.366;2022-07-03T13:43:56;35.30;90.20
17948;DHT22;9099;47.958;11.366;2022-07-03T13:46:22;35.20;86.80
17948;DHT22;9099;47.958;11.366;2022-07-03T13:48:50;34.80;84.70
17948;DHT22;9099;47.958;11.366;2022-07-03T13:51:18;34.70;90.40
17948;DHT22;9099;47.958;11.366;2022-07-03T13:53:45;34.70;91.30
17948;DHT22;9099;47.958;11.366;2022-07-03T13:56:13;34.80;89.20
17948;DHT22;9099;47.958;11.366;2022-07-03T13:58:40;34.70;91.60
17948;DHT22;9099;47.958;11.366;2022-07-03T14:01:07;34.50;89.00
17948;DHT22;9099;47.958;11.366;2022-07-03T14:03:34;34.30;89.60
17948;DHT22;9099;47.958;11.366;2022-07-03T14:06:01;34.40;92.00
17948;DHT22;9099;47.958;11.366;2022-07-03T14:08:27;34.50;90.30
17948;DHT22;9099;47.958;11.366;2022-07-03T14:10:54;34.50;89.90
17948;DHT22;9099;47.958;11.366;2022-07-03T14:13:22;34.30;91.70
17948;DHT22;9099;47.958;11.366;2022-07-03T14:15:49;34.10;91.00
17948;DHT22;9099;47.958;11.366;2022-07-03T14:18:16;34.10;92.00
17948;DHT22;9099;47.958;11.366;2022-07-03T14:20:43;34.10;90.20
17948;DHT22;9099;47.958;11.366;2022-07-03T14:23:10;34.10;91.00
17948;DHT22;9099;47.958;11.366;2022-07-03T14:25:37;34.20;91.90
17948;DHT22;9099;47.958;11.366;2022-07-03T14:28:04;34.40;90.90
17948;DHT22;9099;47.958;11.366;2022-07-03T14:30:49;34.50;91.50
17948;DHT22;9099;47.958;11.366;2022-07-03T14:33:33;34.50;87.40
17948;DHT22;9099;47.958;11.366;2022-07-03T14:36:00;34.30;91.00
17948;DHT22;9099;47.958;11.366;2022-07-03T14:38:27;34.30;90.60
17948;DHT22;9099;47.958;11.366;2022-07-03T14:40:54;34.10;90.80
17948;DHT22;9099;47.958;11.366;2022-07-03T14:43:21;33.90;90.50
17948;DHT22;9099;47.958;11.366;2022-07-03T14:45:49;33.90;93.00
17948;DHT22;9099;47.958;11.366;2022-07-03T14:48:16;33.90;91.30
17948;DHT22;9099;47.958;11.366;2022-07-03T14:50:42;33.90;91.90
17948;DHT22;9099;47.958;11.366;2022-07-03T14:53:09;33.90;91.30
17948;DHT22;9099;47.958;11.366;2022-07-03T14:55:39;33.90;91.50
17948;DHT22;9099;47.958;11.366;2022-07-03T14:58:14;33.70;92.70
17948;DHT22;9099;47.958;11.366;2022-07-03T15:00:46;33.70;92.80
17948;DHT22;9099;47.958;11.366;2022-07-03T15:03:17;33.70;90.90
17948;DHT22;9099;47.958;11.366;2022-07-03T15:05:46;33.70;90.60
17948;DHT22;9099;47.958;11.366;2022-07-03T15:08:36;33.70;92.40
17948;DHT22;9099;47.958;11.366;2022-07-03T15:11:08;33.70;92.50
17948;DHT22;9099;47.958;11.366;2022-07-03T15:13:59;33.50;91.20
17948;DHT22;9099;47.958;11.366;2022-07-03T15:16:29;33.20;91.70
17948;DHT22;9099;47.958;11.366;2022-07-03T15:18:59;33.10;91.40
17948;DHT22;9099;47.958;11.366;2022-07-03T15:21:30;32.90;92.50
17948;DHT22;9099;47.958;11.366;2022-07-03T15:24:01;32.90;91.60
17948;DHT22;9099;47.958;11.366;2022-07-03T15:26:29;32.70;91.20
17948;DHT22;9099;47.958;11.366;2022-07-03T15:28:58;32.70;91.90
17948;DHT22;9099;47.958;11.366;2022-07-03T15:31:26;32.70;93.40
17948;DHT22;9099;47.958;11.366;2022-07-03T15:33:54;32.80;92.00
17948;DHT22;9099;47.958;11.366;2022-07-03T15:36:26;32.90;91.90
17948;DHT22;9099;47.958;11.366;2022-07-03T15:39:02;32.80;91.90
17948;DHT22;9099;47.958;11.366;2022-07-03T15:41:43;32.80;92.30
17948;DHT22;9099;47.958;11.366;2022-07-03T15:44:20;32.70;91.20
17948;DHT22;9099;47.958;11.366;2022-07-03T15:46:56;32.50;91.30
17948;DHT22;9099;47.958;11.366;2022-07-03T15:49:27;32.40;92.00
17948;DHT22;9099;47.958;11.366;2022-07-03T15:52:07;32.30;93.00